Terminal Aerodrome Forecast
Issued by NWS Sioux Falls, SD

Home | Current Version | Previous Version | Text Only | Print | Product List | Glossary Off
Versions: 1 2 3 4 5 6 7 8 9 10 11 12 13 14 15 16 17 18 19 20 21

000
FTUS43 KFSD 252330
TAFHON
TAF
KHON 252330Z 2600/2624 VRB03KT P6SM BKN025
      TEMPO 2600/2603 SCT025
     FM260300 17006KT P6SM SCT070 BKN100
     FM260900 26008KT P6SM SCT100
     FM261200 30014G20KT P6SM SKC
     FM262200 31006KT P6SM FEW120=

USA.gov is the U.S. government's official web portal to all federal, state and local government web resources and services.